sensor_id;sensor_type;location;lat;lon;timestamp;pressure;altitude;pressure_sealevel;temperature;humidity
8366;BME280;4220;42.502;24.188;2023-05-19T00:00:57;95311.66;;;11.22;100.00
8366;BME280;4220;42.502;24.188;2023-05-19T00:03:25;95297.41;;;11.16;100.00
8366;BME280;4220;42.502;24.188;2023-05-19T00:05:53;95292.69;;;11.18;100.00
8366;BME280;4220;42.502;24.188;2023-05-19T00:08:22;95302.72;;;11.16;100.00
8366;BME280;4220;42.502;24.188;2023-05-19T00:10:52;95290.28;;;11.17;100.00
8366;BME280;4220;42.502;24.188;2023-05-19T00:13:20;95298.44;;;11.15;100.00
8366;BME280;4220;42.502;24.188;2023-05-19T00:15:47;95232.47;;;10.76;100.00
8366;BME280;4220;42.502;24.188;2023-05-19T00:18:14;95295.94;;;11.02;100.00
8366;BME280;4220;42.502;24.188;2023-05-19T00:20:41;95293.03;;;11.04;100.00
8366;BME280;4220;42.502;24.188;2023-05-19T00:23:09;95280.88;;;10.96;100.00
8366;BME280;4220;42.502;24.188;2023-05-19T00:25:36;95296.34;;;10.99;100.00
8366;BME280;4220;42.502;24.188;2023-05-19T00:28:05;95300.19;;;11.03;100.00
8366;BME280;4220;42.502;24.188;2023-05-19T00:30:32;95267.59;;;10.96;100.00
8366;BME280;4220;42.502;24.188;2023-05-19T00:32:59;95281.41;;;11.05;100.00
8366;BME280;4220;42.502;24.188;2023-05-19T00:35:26;95263.69;;;10.99;100.00
8366;BME280;4220;42.502;24.188;2023-05-19T00:37:53;95296.28;;;11.06;100.00
8366;BME280;4220;42.502;24.188;2023-05-19T00:40:20;95242.38;;;10.87;100.00
8366;BME280;4220;42.502;24.188;2023-05-19T00:42:48;95285.47;;;11.07;100.00
8366;BME280;4220;42.502;24.188;2023-05-19T00:45:16;95276.41;;;11.15;100.00
8366;BME280;4220;42.502;24.188;2023-05-19T00:47:43;95273.97;;;11.13;100.00
8366;BME280;4220;42.502;24.188;2023-05-19T00:50:10;95268.81;;;11.18;100.00
8366;BME280;4220;42.502;24.188;2023-05-19T00:52:37;95250.22;;;11.00;100.00
8366;BME280;4220;42.502;24.188;2023-05-19T00:55:04;95269.84;;;11.18;100.00
8366;BME280;4220;42.502;24.188;2023-05-19T00:57:32;95278.56;;;11.25;100.00
8366;BME280;4220;42.502;24.188;2023-05-19T00:59:59;95281.88;;;11.20;100.00
8366;BME280;4220;42.502;24.188;2023-05-19T01:02:28;95265.56;;;11.16;100.00
8366;BME280;4220;42.502;24.188;2023-05-19T01:04:56;95267.97;;;11.18;100.00
8366;BME280;4220;42.502;24.188;2023-05-19T01:07:24;95212.81;;;10.84;100.00
8366;BME280;4220;42.502;24.188;2023-05-19T01:09:51;95245.97;;;11.18;100.00
8366;BME280;4220;42.502;24.188;2023-05-19T01:12:18;95271.16;;;11.27;100.00
8366;BME280;4220;42.502;24.188;2023-05-19T01:14:45;95267.13;;;11.24;100.00
8366;BME280;4220;42.502;24.188;2023-05-19T01:17:18;95261.88;;;11.18;100.00
8366;BME280;4220;42.502;24.188;2023-05-19T01:19:58;95279.22;;;11.20;100.00
8366;BME280;4220;42.502;24.188;2023-05-19T01:22:50;95287.38;;;11.18;100.00
8366;BME280;4220;42.502;24.188;2023-05-19T01:26:03;95290.03;;;11.18;100.00
8366;BME280;4220;42.502;24.188;2023-05-19T01:28:52;95279.41;;;11.18;100.00
8366;BME280;4220;42.502;24.188;2023-05-19T01:31:26;95272.94;;;11.14;100.00
8366;BME280;4220;42.502;24.188;2023-05-19T01:33:54;95284.13;;;11.16;100.00
8366;BME280;4220;42.502;24.188;2023-05-19T01:36:24;95282.50;;;11.15;100.00
8366;BME280;4220;42.502;24.188;2023-05-19T01:38:55;95278.31;;;11.08;100.00
8366;BME280;4220;42.502;24.188;2023-05-19T01:41:24;95272.19;;;11.07;100.00
8366;BME280;4220;42.502;24.188;2023-05-19T01:43:53;95265.69;;;11.03;100.00
8366;BME280;4220;42.502;24.188;2023-05-19T01:46:20;95299.47;;;11.14;100.00
8366;BME280;4220;42.502;24.188;2023-05-19T01:48:49;95293.59;;;11.12;100.00
8366;BME280;4220;42.502;24.188;2023-05-19T01:51:16;95304.63;;;11.09;100.00
8366;BME280;4220;42.502;24.188;2023-05-19T01:53:42;95295.25;;;11.07;100.00
8366;BME280;4220;42.502;24.188;2023-05-19T01:56:09;95304.09;;;11.01;100.00
8366;BME280;4220;42.502;24.188;2023-05-19T01:58:40;95255.41;;;10.71;100.00
8366;BME280;4220;42.502;24.188;2023-05-19T02:01:20;95292.56;;;10.89;100.00
8366;BME280;4220;42.502;24.188;2023-05-19T02:04:12;95299.34;;;10.85;100.00
8366;BME280;4220;42.502;24.188;2023-05-19T02:06:45;95291.81;;;10.82;100.00
8366;BME280;4220;42.502;24.188;2023-05-19T02:09:18;95288.00;;;10.78;100.00
8366;BME280;4220;42.502;24.188;2023-05-19T02:11:54;95312.69;;;10.78;100.00
8366;BME280;4220;42.502;24.188;2023-05-19T02:14:25;95288.19;;;10.76;100.00
8366;BME280;4220;42.502;24.188;2023-05-19T02:16:56;95305.91;;;10.82;100.00
8366;BME280;4220;42.502;24.188;2023-05-19T02:19:26;95305.91;;;10.82;100.00
8366;BME280;4220;42.502;24.188;2023-05-19T02:21:53;95293.28;;;10.78;100.00
8366;BME280;4220;42.502;24.188;2023-05-19T02:24:20;95274.91;;;10.58;100.00
8366;BME280;4220;42.502;24.188;2023-05-19T02:26:48;95301.78;;;10.86;100.00
8366;BME280;4220;42.502;24.188;2023-05-19T02:29:16;95311.97;;;10.89;100.00
8366;BME280;4220;42.502;24.188;2023-05-19T02:31:43;95311.38;;;10.87;100.00
8366;BME280;4220;42.502;24.188;2023-05-19T02:34:10;95273.41;;;10.62;100.00
8366;BME280;4220;42.502;24.188;2023-05-19T02:36:39;95319.75;;;10.84;100.00
8366;BME280;4220;42.502;24.188;2023-05-19T02:39:07;95325.50;;;10.81;100.00
8366;BME280;4220;42.502;24.188;2023-05-19T02:41:35;95289.75;;;10.59;100.00
8366;BME280;4220;42.502;24.188;2023-05-19T02:44:02;95318.78;;;10.79;100.00
8366;BME280;4220;42.502;24.188;2023-05-19T02:46:29;95329.78;;;10.82;100.00
8366;BME280;4220;42.502;24.188;2023-05-19T02:48:56;95315.03;;;10.86;100.00
8366;BME280;4220;42.502;24.188;2023-05-19T02:51:23;95326.31;;;10.82;100.00
8366;BME280;4220;42.502;24.188;2023-05-19T02:53:51;95321.22;;;10.80;100.00
8366;BME280;4220;42.502;24.188;2023-05-19T02:56:18;95330.78;;;10.81;100.00
8366;BME280;4220;42.502;24.188;2023-05-19T02:58:45;95321.91;;;10.69;100.00
8366;BME280;4220;42.502;24.188;2023-05-19T03:01:12;95331.09;;;10.73;100.00
8366;BME280;4220;42.502;24.188;2023-05-19T03:03:39;95322.72;;;10.70;100.00
8366;BME280;4220;42.502;24.188;2023-05-19T03:06:06;95327.38;;;10.74;100.00
8366;BME280;4220;42.502;24.188;2023-05-19T03:08:34;95310.88;;;10.72;100.00
8366;BME280;4220;42.502;24.188;2023-05-19T03:11:02;95318.50;;;10.62;100.00
8366;BME280;4220;42.502;24.188;2023-05-19T03:13:29;95342.28;;;10.75;100.00
8366;BME280;4220;42.502;24.188;2023-05-19T03:15:56;95329.84;;;10.76;100.00
8366;BME280;4220;42.502;24.188;2023-05-19T03:18:24;95323.72;;;10.75;100.00
8366;BME280;4220;42.502;24.188;2023-05-19T03:20:51;95324.97;;;10.73;100.00
8366;BME280;4220;42.502;24.188;2023-05-19T03:23:19;95333.16;;;10.71;100.00
8366;BME280;4220;42.502;24.188;2023-05-19T03:25:46;95329.69;;;10.71;100.00
8366;BME280;4220;42.502;24.188;2023-05-19T03:28:14;95323.13;;;10.73;100.00
8366;BME280;4220;42.502;24.188;2023-05-19T03:30:41;95336.16;;;10.75;100.00
8366;BME280;4220;42.502;24.188;2023-05-19T03:33:08;95318.03;;;10.72;100.00
8366;BME280;4220;42.502;24.188;2023-05-19T03:35:35;95330.78;;;10.81;100.00
8366;BME280;4220;42.502;24.188;2023-05-19T03:38:02;95353.41;;;10.90;100.00
8366;BME280;4220;42.502;24.188;2023-05-19T03:40:29;95337.25;;;10.92;100.00
8366;BME280;4220;42.502;24.188;2023-05-19T03:42:56;95345.38;;;10.97;100.00
8366;BME280;4220;42.502;24.188;2023-05-19T03:45:24;95337.34;;;11.03;100.00
8366;BME280;4220;42.502;24.188;2023-05-19T03:47:51;95339.56;;;11.06;100.00
8366;BME280;4220;42.502;24.188;2023-05-19T03:50:18;95331.19;;;11.09;100.00
8366;BME280;4220;42.502;24.188;2023-05-19T03:52:45;95341.13;;;11.14;100.00
8366;BME280;4220;42.502;24.188;2023-05-19T03:55:13;95348.81;;;11.22;100.00
8366;BME280;4220;42.502;24.188;2023-05-19T03:57:40;95338.38;;;11.27;100.00
8366;BME280;4220;42.502;24.188;2023-05-19T04:00:08;95331.69;;;11.18;100.00
8366;BME280;4220;42.502;24.188;2023-05-19T04:02:38;95333.25;;;11.26;100.00
8366;BME280;4220;42.502;24.188;2023-05-19T04:05:05;95340.94;;;11.34;100.00
8366;BME280;4220;42.502;24.188;2023-05-19T04:07:32;95339.03;;;11.41;100.00
8366;BME280;4220;42.502;24.188;2023-05-19T04:10:01;95347.72;;;11.48;100.00
8366;BME280;4220;42.502;24.188;2023-05-19T04:12:29;95339.34;;;11.51;100.00
8366;BME280;4220;42.502;24.188;2023-05-19T04:14:56;95335.00;;;11.56;100.00
8366;BME280;4220;42.502;24.188;2023-05-19T04:17:23;95288.41;;;11.36;100.00
8366;BME280;4220;42.502;24.188;2023-05-19T04:19:52;95334.09;;;11.62;100.00
8366;BME280;4220;42.502;24.188;2023-05-19T04:22:19;95335.50;;;11.65;100.00
8366;BME280;4220;42.502;24.188;2023-05-19T04:24:46;95328.28;;;11.72;100.00
8366;BME280;4220;42.502;24.188;2023-05-19T04:27:13;95335.63;;;11.76;100.00
8366;BME280;4220;42.502;24.188;2023-05-19T04:29:40;95326.38;;;11.79;100.00
8366;BME280;4220;42.502;24.188;2023-05-19T04:32:07;95333.00;;;11.88;100.00
8366;BME280;4220;42.502;24.188;2023-05-19T04:34:35;95335.53;;;11.83;100.00
8366;BME280;4220;42.502;24.188;2023-05-19T04:37:06;95327.69;;;11.88;100.00
8366;BME280;4220;42.502;24.188;2023-05-19T04:39:34;95331.66;;;11.97;100.00
8366;BME280;4220;42.502;24.188;2023-05-19T04:42:03;95336.00;;;12.10;100.00
8366;BME280;4220;42.502;24.188;2023-05-19T04:44:30;95333.34;;;12.10;100.00
8366;BME280;4220;42.502;24.188;2023-05-19T04:46:58;95332.13;;;12.24;100.00
8366;BME280;4220;42.502;24.188;2023-05-19T04:49:25;95335.75;;;12.29;100.00
8366;BME280;4220;42.502;24.188;2023-05-19T04:51:52;95335.44;;;12.37;100.00
8366;BME280;4220;42.502;24.188;2023-05-19T04:54:20;95341.22;;;12.46;100.00
8366;BME280;4220;42.502;24.188;2023-05-19T04:56:47;95333.38;;;12.51;100.00
8366;BME280;4220;42.502;24.188;2023-05-19T04:59:14;95356.91;;;12.66;100.00
8366;BME280;4220;42.502;24.188;2023-05-19T05:01:40;95314.72;;;12.39;100.00
8366;BME280;4220;42.502;24.188;2023-05-19T05:04:07;95360.06;;;12.74;100.00
8366;BME280;4220;42.502;24.188;2023-05-19T05:06:34;95341.91;;;12.83;100.00
8366;BME280;4220;42.502;24.188;2023-05-19T05:09:03;95344.69;;;12.88;100.00
8366;BME280;4220;42.502;24.188;2023-05-19T05:11:32;95352.47;;;13.01;100.00
8366;BME280;4220;42.502;24.188;2023-05-19T05:13:59;95337.53;;;13.00;100.00
8366;BME280;4220;42.502;24.188;2023-05-19T05:16:26;95342.09;;;13.11;100.00
8366;BME280;4220;42.502;24.188;2023-05-19T05:18:54;95343.28;;;13.27;100.00
8366;BME280;4220;42.502;24.188;2023-05-19T05:21:22;95346.00;;;13.32;100.00
8366;BME280;4220;42.502;24.188;2023-05-19T05:23:50;95355.19;;;13.36;100.00
8366;BME280;4220;42.502;24.188;2023-05-19T05:26:17;95351.38;;;13.43;100.00
8366;BME280;4220;42.502;24.188;2023-05-19T05:28:47;95356.31;;;13.51;100.00
8366;BME280;4220;42.502;24.188;2023-05-19T05:31:14;95382.97;;;13.63;100.00
8366;BME280;4220;42.502;24.188;2023-05-19T05:33:41;95370.66;;;13.73;100.00
8366;BME280;4220;42.502;24.188;2023-05-19T05:36:09;95376.22;;;13.84;100.00
8366;BME280;4220;42.502;24.188;2023-05-19T05:38:35;95363.69;;;13.96;100.00
8366;BME280;4220;42.502;24.188;2023-05-19T05:41:03;95367.50;;;14.00;100.00
8366;BME280;4220;42.502;24.188;2023-05-19T05:43:29;95353.38;;;13.99;100.00
8366;BME280;4220;42.502;24.188;2023-05-19T05:45:58;95350.91;;;14.09;100.00
8366;BME280;4220;42.502;24.188;2023-05-19T05:48:25;95386.78;;;14.30;100.00
8366;BME280;4220;42.502;24.188;2023-05-19T05:50:52;95376.84;;;14.37;100.00
8366;BME280;4220;42.502;24.188;2023-05-19T05:53:20;95380.75;;;14.46;100.00
8366;BME280;4220;42.502;24.188;2023-05-19T05:55:48;95386.38;;;14.50;100.00
8366;BME280;4220;42.502;24.188;2023-05-19T05:58:15;95389.84;;;14.62;100.00
8366;BME280;4220;42.502;24.188;2023-05-19T06:00:42;95390.41;;;14.64;100.00
8366;BME280;4220;42.502;24.188;2023-05-19T06:03:11;95411.06;;;14.68;100.00
8366;BME280;4220;42.502;24.188;2023-05-19T06:05:38;95406.38;;;14.75;100.00
8366;BME280;4220;42.502;24.188;2023-05-19T06:08:05;95390.34;;;14.75;100.00
8366;BME280;4220;42.502;24.188;2023-05-19T06:10:32;95398.56;;;14.85;100.00
8366;BME280;4220;42.502;24.188;2023-05-19T06:13:00;95399.59;;;14.84;100.00
8366;BME280;4220;42.502;24.188;2023-05-19T06:15:27;95408.44;;;15.01;100.00
8366;BME280;4220;42.502;24.188;2023-05-19T06:17:53;95390.16;;;14.93;100.00
8366;BME280;4220;42.502;24.188;2023-05-19T06:20:22;95405.53;;;15.03;100.00
8366;BME280;4220;42.502;24.188;2023-05-19T06:22:49;95417.63;;;15.22;100.00
8366;BME280;4220;42.502;24.188;2023-05-19T06:25:16;95419.00;;;15.25;100.00
8366;BME280;4220;42.502;24.188;2023-05-19T06:27:45;95416.50;;;15.35;100.00
8366;BME280;4220;42.502;24.188;2023-05-19T06:30:12;95420.50;;;15.49;100.00
8366;BME280;4220;42.502;24.188;2023-05-19T06:32:39;95413.66;;;15.58;100.00
8366;BME280;4220;42.502;24.188;2023-05-19T06:35:06;95429.31;;;15.66;100.00
8366;BME280;4220;42.502;24.188;2023-05-19T06:37:35;95429.28;;;15.83;100.00
8366;BME280;4220;42.502;24.188;2023-05-19T06:40:02;95434.56;;;15.94;100.00
8366;BME280;4220;42.502;24.188;2023-05-19T06:42:30;95438.69;;;15.85;100.00
8366;BME280;4220;42.502;24.188;2023-05-19T06:44:56;95436.09;;;15.90;100.00
8366;BME280;4220;42.502;24.188;2023-05-19T06:47:24;95453.28;;;15.94;100.00
8366;BME280;4220;42.502;24.188;2023-05-19T06:49:50;95440.47;;;15.96;100.00
8366;BME280;4220;42.502;24.188;2023-05-19T06:52:19;95439.88;;;16.11;100.00
8366;BME280;4220;42.502;24.188;2023-05-19T06:54:48;95425.25;;;16.18;100.00
8366;BME280;4220;42.502;24.188;2023-05-19T06:57:15;95391.94;;;16.09;100.00
8366;BME280;4220;42.502;24.188;2023-05-19T06:59:41;95404.34;;;16.15;100.00
8366;BME280;4220;42.502;24.188;2023-05-19T07:02:11;95431.50;;;16.46;100.00
8366;BME280;4220;42.502;24.188;2023-05-19T07:04:38;95438.38;;;16.58;100.00
8366;BME280;4220;42.502;24.188;2023-05-19T07:07:05;95409.16;;;16.57;100.00
8366;BME280;4220;42.502;24.188;2023-05-19T07:09:32;95437.16;;;16.92;100.00
8366;BME280;4220;42.502;24.188;2023-05-19T07:12:00;95383.78;;;16.64;100.00
8366;BME280;4220;42.502;24.188;2023-05-19T07:14:27;95455.31;;;17.12;100.00
8366;BME280;4220;42.502;24.188;2023-05-19T07:16:54;95406.53;;;16.88;100.00
8366;BME280;4220;42.502;24.188;2023-05-19T07:19:21;95445.69;;;17.16;100.00
8366;BME280;4220;42.502;24.188;2023-05-19T07:21:48;95446.72;;;17.15;100.00
8366;BME280;4220;42.502;24.188;2023-05-19T07:24:15;95436.72;;;17.32;100.00
8366;BME280;4220;42.502;24.188;2023-05-19T07:26:42;95402.94;;;17.31;100.00
8366;BME280;4220;42.502;24.188;2023-05-19T07:29:10;95424.81;;;17.50;100.00
8366;BME280;4220;42.502;24.188;2023-05-19T07:31:37;95440.06;;;17.49;100.00
8366;BME280;4220;42.502;24.188;2023-05-19T07:34:04;95459.03;;;17.38;100.00
8366;BME280;4220;42.502;24.188;2023-05-19T07:36:31;95443.19;;;17.36;100.00
8366;BME280;4220;42.502;24.188;2023-05-19T07:38:58;95445.84;;;17.31;100.00
8366;BME280;4220;42.502;24.188;2023-05-19T07:41:26;95442.94;;;17.38;100.00
8366;BME280;4220;42.502;24.188;2023-05-19T07:43:52;95447.03;;;17.45;100.00
8366;BME280;4220;42.502;24.188;2023-05-19T07:46:21;95453.47;;;17.44;100.00
8366;BME280;4220;42.502;24.188;2023-05-19T07:48:47;95456.16;;;17.49;100.00
8366;BME280;4220;42.502;24.188;2023-05-19T07:51:14;95459.56;;;17.67;100.00
8366;BME280;4220;42.502;24.188;2023-05-19T07:53:41;95457.25;;;17.80;100.00
8366;BME280;4220;42.502;24.188;2023-05-19T07:56:08;95463.72;;;17.84;100.00
8366;BME280;4220;42.502;24.188;2023-05-19T07:58:35;95468.00;;;17.80;100.00
8366;BME280;4220;42.502;24.188;2023-05-19T08:01:02;95451.59;;;17.77;100.00
8366;BME280;4220;42.502;24.188;2023-05-19T08:03:30;95465.59;;;17.79;100.00
8366;BME280;4220;42.502;24.188;2023-05-19T08:05:58;95440.78;;;17.61;100.00
8366;BME280;4220;42.502;24.188;2023-05-19T08:08:24;95475.59;;;17.88;100.00
8366;BME280;4220;42.502;24.188;2023-05-19T08:10:51;95469.69;;;17.91;100.00
8366;BME280;4220;42.502;24.188;2023-05-19T08:13:18;95483.59;;;17.83;100.00
8366;BME280;4220;42.502;24.188;2023-05-19T08:15:45;95477.97;;;17.85;100.00
8366;BME280;4220;42.502;24.188;2023-05-19T08:18:12;95482.59;;;17.94;100.00
8366;BME280;4220;42.502;24.188;2023-05-19T08:20:40;95478.22;;;17.83;100.00
8366;BME280;4220;42.502;24.188;2023-05-19T08:23:07;95468.72;;;17.71;100.00
8366;BME280;4220;42.502;24.188;2023-05-19T08:25:34;95491.25;;;17.70;100.00
8366;BME280;4220;42.502;24.188;2023-05-19T08:28:00;95488.06;;;17.73;100.00
8366;BME280;4220;42.502;24.188;2023-05-19T08:30:27;95504.06;;;17.94;100.00
8366;BME280;4220;42.502;24.188;2023-05-19T08:32:54;95502.34;;;18.15;100.00
8366;BME280;4220;42.502;24.188;2023-05-19T08:35:21;95510.88;;;18.07;100.00
8366;BME280;4220;42.502;24.188;2023-05-19T08:37:49;95493.34;;;17.99;100.00
8366;BME280;4220;42.502;24.188;2023-05-19T08:40:17;95499.09;;;18.13;100.00
8366;BME280;4220;42.502;24.188;2023-05-19T08:42:44;95507.47;;;18.21;100.00
8366;BME280;4220;42.502;24.188;2023-05-19T08:45:11;95508.56;;;18.20;100.00
8366;BME280;4220;42.502;24.188;2023-05-19T08:47:40;95505.09;;;18.25;100.00
8366;BME280;4220;42.502;24.188;2023-05-19T08:50:08;95507.53;;;18.32;100.00
8366;BME280;4220;42.502;24.188;2023-05-19T08:52:42;95498.13;;;18.29;100.00
8366;BME280;4220;42.502;24.188;2023-05-19T08:55:24;95483.75;;;18.03;100.00
8366;BME280;4220;42.502;24.188;2023-05-19T08:57:55;95494.69;;;17.97;100.00
8366;BME280;4220;42.502;24.188;2023-05-19T09:00:22;95498.81;;;18.09;100.00
8366;BME280;4220;42.502;24.188;2023-05-19T09:02:50;95500.72;;;18.14;100.00
8366;BME280;4220;42.502;24.188;2023-05-19T09:05:19;95502.34;;;18.15;100.00
8366;BME280;4220;42.502;24.188;2023-05-19T09:07:46;95500.97;;;18.12;100.00
8366;BME280;4220;42.502;24.188;2023-05-19T09:10:13;95474.59;;;18.04;100.00
8366;BME280;4220;42.502;24.188;2023-05-19T09:12:43;95503.47;;;18.24;100.00
8366;BME280;4220;42.502;24.188;2023-05-19T09:15:12;95508.78;;;18.19;100.00
8366;BME280;4220;42.502;24.188;2023-05-19T09:17:39;95514.47;;;18.22;100.00
8366;BME280;4220;42.502;24.188;2023-05-19T09:20:06;95511.56;;;18.29;100.00
8366;BME280;4220;42.502;24.188;2023-05-19T09:22:40;95520.75;;;18.43;100.00
8366;BME280;4220;42.502;24.188;2023-05-19T09:25:16;95508.16;;;18.44;100.00
8366;BME280;4220;42.502;24.188;2023-05-19T09:27:47;95527.88;;;18.59;100.00
8366;BME280;4220;42.502;24.188;2023-05-19T09:30:16;95514.47;;;18.59;100.00
8366;BME280;4220;42.502;24.188;2023-05-19T09:32:44;95418.22;;;17.99;100.00
8366;BME280;4220;42.502;24.188;2023-05-19T09:35:11;95486.03;;;18.26;100.00
8366;BME280;4220;42.502;24.188;2023-05-19T09:37:39;95521.38;;;18.50;100.00
8366;BME280;4220;42.502;24.188;2023-05-19T09:40:07;95519.44;;;18.46;100.00
8366;BME280;4220;42.502;24.188;2023-05-19T09:42:36;95530.78;;;18.53;100.00
8366;BME280;4220;42.502;24.188;2023-05-19T09:45:06;95527.66;;;18.66;100.00
8366;BME280;4220;42.502;24.188;2023-05-19T09:47:34;95551.94;;;18.86;100.00
8366;BME280;4220;42.502;24.188;2023-05-19T09:50:03;95552.81;;;18.97;100.00
8366;BME280;4220;42.502;24.188;2023-05-19T09:52:33;95538.31;;;19.08;100.00
8366;BME280;4220;42.502;24.188;2023-05-19T09:55:01;95558.22;;;19.12;100.00
8366;BME280;4220;42.502;24.188;2023-05-19T09:57:32;95559.63;;;19.24;100.00
8366;BME280;4220;42.502;24.188;2023-05-19T10:00:02;95554.00;;;19.26;100.00
8366;BME280;4220;42.502;24.188;2023-05-19T10:02:40;95529.97;;;19.09;100.00
8366;BME280;4220;42.502;24.188;2023-05-19T10:05:10;95517.38;;;18.58;100.00
8366;BME280;4220;42.502;24.188;2023-05-19T10:07:41;95492.41;;;17.79;100.00
8366;BME280;4220;42.502;24.188;2023-05-19T10:10:11;95515.00;;;17.56;100.00
8366;BME280;4220;42.502;24.188;2023-05-19T10:12:38;95508.69;;;17.19;100.00
8366;BME280;4220;42.502;24.188;2023-05-19T10:15:08;95507.47;;;17.05;100.00
8366;BME280;4220;42.502;24.188;2023-05-19T10:17:38;95498.19;;;16.69;100.00
8366;BME280;4220;42.502;24.188;2023-05-19T10:20:09;95497.50;;;16.57;100.00
8366;BME280;4220;42.502;24.188;2023-05-19T10:22:37;95511.81;;;16.46;100.00
8366;BME280;4220;42.502;24.188;2023-05-19T10:25:05;95499.25;;;16.46;100.00
8366;BME280;4220;42.502;24.188;2023-05-19T10:27:34;95462.63;;;16.52;100.00
8366;BME280;4220;42.502;24.188;2023-05-19T10:30:07;95497.81;;;17.04;100.00
8366;BME280;4220;42.502;24.188;2023-05-19T10:32:38;95512.41;;;17.39;100.00
8366;BME280;4220;42.502;24.188;2023-05-19T10:35:27;95517.09;;;17.81;100.00
8366;BME280;4220;42.502;24.188;2023-05-19T10:38:09;95504.81;;;18.26;100.00
8366;BME280;4220;42.502;24.188;2023-05-19T10:40:44;95526.91;;;18.80;100.00
8366;BME280;4220;42.502;24.188;2023-05-19T10:43:23;95532.47;;;19.21;100.00
8366;BME280;4220;42.502;24.188;2023-05-19T10:45:52;95537.94;;;19.51;100.00
8366;BME280;4220;42.502;24.188;2023-05-19T10:48:21;95524.81;;;19.75;100.00
8366;BME280;4220;42.502;24.188;2023-05-19T10:50:48;95545.25;;;19.96;100.00
8366;BME280;4220;42.502;24.188;2023-05-19T10:53:18;95498.94;;;19.74;100.00
8366;BME280;4220;42.502;24.188;2023-05-19T10:55:51;95534.78;;;20.09;100.00
8366;BME280;4220;42.502;24.188;2023-05-19T10:58:48;95544.22;;;20.12;91.21
8366;BME280;4220;42.502;24.188;2023-05-19T11:01:17;95549.31;;;20.18;92.73
8366;BME280;4220;42.502;24.188;2023-05-19T11:03:47;95536.69;;;20.24;93.81
8366;BME280;4220;42.502;24.188;2023-05-19T11:06:19;95550.13;;;19.99;95.48
8366;BME280;4220;42.502;24.188;2023-05-19T11:08:51;95542.56;;;19.96;93.67
8366;BME280;4220;42.502;24.188;2023-05-19T11:11:19;95532.06;;;19.79;94.54
8366;BME280;4220;42.502;24.188;2023-05-19T11:13:47;95529.66;;;19.73;97.74
8366;BME280;4220;42.502;24.188;2023-05-19T11:16:17;95540.69;;;19.81;98.26
8366;BME280;4220;42.502;24.188;2023-05-19T11:18:48;95535.03;;;19.93;95.84
8366;BME280;4220;42.502;24.188;2023-05-19T11:21:18;95528.03;;;19.92;94.70
8366;BME280;4220;42.502;24.188;2023-05-19T11:23:45;95538.00;;;20.11;95.05
8366;BME280;4220;42.502;24.188;2023-05-19T11:26:12;95532.34;;;20.18;95.20
8366;BME280;4220;42.502;24.188;2023-05-19T11:28:39;95527.78;;;20.13;92.47
8366;BME280;4220;42.502;24.188;2023-05-19T11:31:07;95528.84;;;20.12;92.41
8366;BME280;4220;42.502;24.188;2023-05-19T11:33:36;95522.91;;;20.20;91.59
8366;BME280;4220;42.502;24.188;2023-05-19T11:36:07;95516.75;;;20.25;89.39
8366;BME280;4220;42.502;24.188;2023-05-19T11:38:34;95517.53;;;19.95;90.32
8366;BME280;4220;42.502;24.188;2023-05-19T11:41:02;95515.13;;;20.14;89.81
8366;BME280;4220;42.502;24.188;2023-05-19T11:43:29;95520.25;;;20.36;87.34
8366;BME280;4220;42.502;24.188;2023-05-19T11:45:56;95523.72;;;20.51;86.09
8366;BME280;4220;42.502;24.188;2023-05-19T11:48:23;95481.97;;;20.44;85.68
8366;BME280;4220;42.502;24.188;2023-05-19T11:50:51;95523.34;;;20.88;86.15
8366;BME280;4220;42.502;24.188;2023-05-19T11:53:20;95519.50;;;21.04;87.28
8366;BME280;4220;42.502;24.188;2023-05-19T11:55:47;95526.56;;;21.05;84.51
8366;BME280;4220;42.502;24.188;2023-05-19T11:58:14;95524.50;;;20.62;79.12
8366;BME280;4220;42.502;24.188;2023-05-19T12:00:42;95515.34;;;20.58;81.59
8366;BME280;4220;42.502;24.188;2023-05-19T12:03:10;95515.06;;;20.64;81.22
8366;BME280;4220;42.502;24.188;2023-05-19T12:05:39;95518.28;;;20.66;81.39
8366;BME280;4220;42.502;24.188;2023-05-19T12:08:06;95518.19;;;20.92;81.30
8366;BME280;4220;42.502;24.188;2023-05-19T12:10:34;95516.03;;;20.88;82.53
8366;BME280;4220;42.502;24.188;2023-05-19T12:13:01;95493.22;;;20.66;85.28
8366;BME280;4220;42.502;24.188;2023-05-19T12:15:30;95508.81;;;20.74;82.06
8366;BME280;4220;42.502;24.188;2023-05-19T12:17:59;95503.44;;;20.74;81.70
8366;BME280;4220;42.502;24.188;2023-05-19T12:20:27;95511.69;;;21.03;81.79
8366;BME280;4220;42.502;24.188;2023-05-19T12:22:56;95513.06;;;20.95;80.80
8366;BME280;4220;42.502;24.188;2023-05-19T12:25:24;95501.91;;;20.43;80.29
8366;BME280;4220;42.502;24.188;2023-05-19T12:27:56;95508.63;;;20.50;79.36
8366;BME280;4220;42.502;24.188;2023-05-19T12:30:27;95499.09;;;20.83;79.66
8366;BME280;4220;42.502;24.188;2023-05-19T12:32:54;95497.03;;;21.29;77.12
8366;BME280;4220;42.502;24.188;2023-05-19T12:35:25;95491.56;;;21.78;75.54
8366;BME280;4220;42.502;24.188;2023-05-19T12:37:53;95493.78;;;22.09;74.30
8366;BME280;4220;42.502;24.188;2023-05-19T12:40:20;95485.69;;;22.38;74.49
8366;BME280;4220;42.502;24.188;2023-05-19T12:42:48;95488.03;;;22.73;70.63
8366;BME280;4220;42.502;24.188;2023-05-19T12:45:19;95493.47;;;22.97;70.81
8366;BME280;4220;42.502;24.188;2023-05-19T12:47:47;95497.25;;;22.96;70.65
8366;BME280;4220;42.502;24.188;2023-05-19T12:50:14;95456.81;;;23.05;69.11
8366;BME280;4220;42.502;24.188;2023-05-19T12:52:42;95486.38;;;23.20;69.75
8366;BME280;4220;42.502;24.188;2023-05-19T12:55:10;95472.66;;;22.93;69.32
8366;BME280;4220;42.502;24.188;2023-05-19T12:57:39;95451.13;;;22.35;72.16
8366;BME280;4220;42.502;24.188;2023-05-19T13:00:12;95471.22;;;22.24;72.01
8366;BME280;4220;42.502;24.188;2023-05-19T13:02:56;95487.34;;;22.05;71.63
8366;BME280;4220;42.502;24.188;2023-05-19T13:05:24;95479.91;;;22.21;72.72
8366;BME280;4220;42.502;24.188;2023-05-19T13:07:55;95474.78;;;22.20;70.81
8366;BME280;4220;42.502;24.188;2023-05-19T13:10:22;95477.59;;;22.67;70.81